createdAt,value
2018-02-21T00:00:42.601Z,61.08
2018-02-21T00:03:09.234Z,59.65
2018-02-21T00:05:35.865Z,58.58
2018-02-21T00:08:02.486Z,55.17
2018-02-21T00:10:29.113Z,57.15
2018-02-21T00:12:55.790Z,58.90
2018-02-21T00:15:22.426Z,54.83
2018-02-21T00:17:49.062Z,60.35
2018-02-21T00:20:15.702Z,57.25
2018-02-21T00:22:42.322Z,63.30
2018-02-21T00:25:08.949Z,60.33
2018-02-21T00:27:35.568Z,57.50
2018-02-21T00:30:02.183Z,56.60
2018-02-21T00:32:28.902Z,61.37
2018-02-21T00:34:55.518Z,60.83
2018-02-21T00:37:22.173Z,57.75
2018-02-21T00:39:48.896Z,59.03
2018-02-21T00:42:15.509Z,59.30
2018-02-21T00:44:42.125Z,58.83
2018-02-21T00:47:08.758Z,59.58
2018-02-21T00:49:35.469Z,63.47
2018-02-21T00:52:02.118Z,58.33
2018-02-21T00:54:28.754Z,59.58
2018-02-21T00:56:55.394Z,61.63
2018-02-21T00:59:22.009Z,62.67
2018-02-21T01:01:48.642Z,61.00
2018-02-21T01:04:15.312Z,63.40
2018-02-21T01:06:41.926Z,64.62
2018-02-21T01:09:08.586Z,60.50
2018-02-21T01:11:35.267Z,63.58
2018-02-21T01:14:01.883Z,61.80
2018-02-21T01:16:28.614Z,60.08
2018-02-21T01:18:55.226Z,63.83
2018-02-21T01:21:21.889Z,60.75
2018-02-21T01:23:48.521Z,62.67
2018-02-21T01:26:15.167Z,63.03
2018-02-21T01:28:41.805Z,60.45
2018-02-21T01:31:08.430Z,57.80
2018-02-21T01:33:35.045Z,65.80
2018-02-21T01:36:01.658Z,66.30
2018-02-21T01:38:28.362Z,61.45
2018-02-21T01:40:54.986Z,65.78
2018-02-21T01:43:21.601Z,62.90
2018-02-21T01:45:48.229Z,63.90
2018-02-21T01:48:14.915Z,62.25
2018-02-21T01:50:47.611Z,64.05
2018-02-21T01:53:14.222Z,63.40
2018-02-21T01:55:40.838Z,60.95
2018-02-21T01:58:07.518Z,60.33
2018-02-21T02:00:34.135Z,62.08
2018-02-21T02:03:00.789Z,59.22
2018-02-21T02:05:27.417Z,62.58
2018-02-21T02:07:54.034Z,62.38
2018-02-21T02:10:20.647Z,65.25
2018-02-21T02:12:47.277Z,64.30
2018-02-21T02:15:13.984Z,63.35
2018-02-21T02:17:40.621Z,62.85
2018-02-21T02:20:07.365Z,64.40
2018-02-21T02:22:34.006Z,58.90
2018-02-21T02:25:00.629Z,61.92
2018-02-21T02:27:27.287Z,62.38
2018-02-21T02:29:53.931Z,64.40
2018-02-21T02:32:20.566Z,62.75
2018-02-21T02:34:47.311Z,58.65
2018-02-21T02:37:13.926Z,58.38
2018-02-21T02:39:46.522Z,62.17
2018-02-21T02:42:13.162Z,57.80
2018-02-21T02:44:39.766Z,55.55
2018-02-21T02:47:06.402Z,62.33
2018-02-21T02:49:33.017Z,60.20
2018-02-21T02:51:59.718Z,60.30
2018-02-21T02:54:26.361Z,60.88
2018-02-21T02:56:52.975Z,60.03
2018-02-21T02:59:19.594Z,62.20
2018-02-21T03:01:46.222Z,61.13
2018-02-21T03:04:12.839Z,55.17
2018-02-21T03:06:39.553Z,62.00
2018-02-21T03:09:06.186Z,63.83
2018-02-21T03:11:32.835Z,61.40
2018-02-21T03:13:59.449Z,62.70
2018-02-21T03:16:26.081Z,60.83
2018-02-21T03:18:52.706Z,61.50
2018-02-21T03:21:19.384Z,59.60
2018-02-21T03:23:46.022Z,67.10
2018-02-21T03:26:12.634Z,60.50
2018-02-21T03:28:39.250Z,63.47
2018-02-21T03:31:05.881Z,62.30
2018-02-21T03:33:32.522Z,56.78
2018-02-21T03:35:59.138Z,59.72
2018-02-21T03:38:25.769Z,58.30
2018-02-21T03:40:52.510Z,60.42
2018-02-21T03:43:19.123Z,61.22
2018-02-21T03:45:45.782Z,64.93
2018-02-21T03:48:12.397Z,60.85
2018-02-21T03:50:39.021Z,59.53
2018-02-21T03:53:05.697Z,63.35
2018-02-21T03:55:32.317Z,57.97
2018-02-21T03:57:58.970Z,57.25
2018-02-21T04:00:25.601Z,60.20
2018-02-21T04:02:52.217Z,59.28
2018-02-21T04:05:18.835Z,60.12
2018-02-21T04:07:45.534Z,56.00
2018-02-21T04:10:12.141Z,59.53
2018-02-21T04:12:38.766Z,57.28
2018-02-21T04:15:05.446Z,56.05
2018-02-21T04:17:32.061Z,62.20
2018-02-21T04:19:58.728Z,59.42
2018-02-21T04:22:25.365Z,57.70
2018-02-21T04:24:51.982Z,59.55
2018-02-21T04:27:18.646Z,58.58
2018-02-21T04:29:45.273Z,57.47
2018-02-21T04:32:11.893Z,58.20
2018-02-21T04:34:38.505Z,58.90
2018-02-21T04:37:05.133Z,55.15
2018-02-21T04:39:31.741Z,56.45
2018-02-21T04:41:58.381Z,53.80
2018-02-21T04:44:25.118Z,55.92
2018-02-21T04:46:52.651Z,55.35
2018-02-21T04:49:19.317Z,58.63
2018-02-21T04:51:46.067Z,55.17
2018-02-21T04:54:29.337Z,56.25
2018-02-21T04:57:01.766Z,55.83
2018-02-21T04:59:29.161Z,59.63
2018-02-21T05:01:56.354Z,60.72
2018-02-21T05:04:23.011Z,55.35
2018-02-21T05:06:49.622Z,56.08
2018-02-21T05:09:16.234Z,55.45
2018-02-21T05:11:42.857Z,54.90
2018-02-21T05:14:09.566Z,56.58
2018-02-21T05:16:36.229Z,57.15
2018-02-21T05:19:02.887Z,56.33
2018-02-21T05:21:29.534Z,52.55
2018-02-21T05:23:56.225Z,54.55
2018-02-21T05:26:22.857Z,55.00
2018-02-21T05:28:49.474Z,55.85
2018-02-21T05:31:16.090Z,56.47
2018-02-21T05:33:42.712Z,56.97
2018-02-21T05:36:09.328Z,59.15
2018-02-21T05:38:35.946Z,56.92
2018-02-21T05:41:02.575Z,57.45
2018-02-21T05:43:29.236Z,60.15
2018-02-21T05:45:55.922Z,67.00
2018-02-21T05:48:22.491Z,57.40
2018-02-21T05:50:49.157Z,57.65
2018-02-21T05:53:15.777Z,58.13
2018-02-21T05:55:42.434Z,58.50
2018-02-21T05:58:09.113Z,56.83
2018-02-21T06:00:35.726Z,57.03
2018-02-21T06:03:02.392Z,55.70
2018-02-21T06:05:29.002Z,57.65
2018-02-21T06:07:55.771Z,56.92
2018-02-21T06:10:22.402Z,53.87
2018-02-21T06:12:49.017Z,57.50
2018-02-21T06:15:15.634Z,57.85
2018-02-21T06:17:42.270Z,54.80
2018-02-21T06:20:08.897Z,53.72
2018-02-21T06:22:35.569Z,56.58
2018-02-21T06:25:02.264Z,52.20
2018-02-21T06:27:28.885Z,57.08
2018-02-21T06:29:55.526Z,56.95
2018-02-21T06:32:22.221Z,53.28
2018-02-21T06:34:48.834Z,55.08
2018-02-21T06:37:15.510Z,51.78
2018-02-21T06:39:42.284Z,54.55
2018-02-21T06:42:08.924Z,53.85
2018-02-21T06:44:35.533Z,53.80
2018-02-21T06:47:02.161Z,49.92
2018-02-21T06:49:28.773Z,52.53
2018-02-21T06:51:55.481Z,51.72
2018-02-21T06:54:22.114Z,52.03
2018-02-21T06:56:48.726Z,53.58
2018-02-21T06:59:15.341Z,53.67
2018-02-21T07:01:41.983Z,52.00
2018-02-21T07:04:08.637Z,50.75
2018-02-21T07:06:35.249Z,51.50
2018-02-21T07:09:01.910Z,51.55
2018-02-21T07:11:28.518Z,52.78
2018-02-21T07:13:55.130Z,51.95
2018-02-21T07:16:21.831Z,51.40
2018-02-21T07:18:48.438Z,49.42
2018-02-21T07:21:15.111Z,52.00
2018-02-21T07:23:41.747Z,50.80
2018-02-21T07:26:08.354Z,49.70
2018-02-21T07:28:35.026Z,48.35
2018-02-21T07:31:01.654Z,46.47
2018-02-21T07:33:28.265Z,49.40
2018-02-21T07:35:54.882Z,47.40
2018-02-21T07:38:21.583Z,51.97
2018-02-21T07:40:48.194Z,47.05
2018-02-21T07:43:14.805Z,48.47
2018-02-21T07:45:41.498Z,46.90
2018-02-21T07:48:08.114Z,46.00
2018-02-21T07:50:34.783Z,46.30
2018-02-21T07:53:01.522Z,45.67
2018-02-21T07:55:28.159Z,48.33
2018-02-21T07:57:54.772Z,47.72
2018-02-21T08:00:21.409Z,48.38
2018-02-21T08:02:48.078Z,48.35
2018-02-21T08:05:14.693Z,46.65
2018-02-21T08:07:41.321Z,42.50
2018-02-21T08:10:07.993Z,48.92
2018-02-21T08:12:34.610Z,45.80
2018-02-21T08:15:01.238Z,40.60
2018-02-21T08:17:27.859Z,41.22
2018-02-21T08:19:54.554Z,43.42
2018-02-21T08:22:21.290Z,42.65
2018-02-21T08:24:47.940Z,44.35
2018-02-21T08:27:14.549Z,43.53
2018-02-21T08:29:41.210Z,44.38
2018-02-21T08:32:07.889Z,42.92
2018-02-21T08:34:34.591Z,45.70
2018-02-21T08:37:01.226Z,44.28
2018-02-21T08:39:27.838Z,46.75
2018-02-21T08:41:54.454Z,44.88
2018-02-21T08:44:21.145Z,46.75
2018-02-21T08:46:47.790Z,42.38
2018-02-21T08:49:14.407Z,44.10
2018-02-21T08:51:41.063Z,41.13
2018-02-21T08:54:07.679Z,40.65
2018-02-21T08:56:34.293Z,38.53
2018-02-21T08:59:00.982Z,41.97
2018-02-21T09:01:27.599Z,38.53
2018-02-21T09:03:54.214Z,38.13
2018-02-21T09:06:20.938Z,39.05
2018-02-21T09:08:47.550Z,42.83
2018-02-21T09:11:14.165Z,42.30
2018-02-21T09:13:40.789Z,38.80
2018-02-21T09:16:07.461Z,43.05
2018-02-21T09:18:34.104Z,43.80
2018-02-21T09:21:00.838Z,41.78
2018-02-21T09:23:27.456Z,39.97
2018-02-21T09:25:54.065Z,38.72
2018-02-21T09:28:20.697Z,42.55
2018-02-21T09:30:47.313Z,40.50
2018-02-21T09:33:13.926Z,39.70
2018-02-21T09:35:40.549Z,39.40
2018-02-21T09:38:07.161Z,37.50
2018-02-21T09:40:33.785Z,38.08
2018-02-21T09:43:00.525Z,39.28
2018-02-21T09:45:27.231Z,36.00
2018-02-21T09:47:53.838Z,37.28
2018-02-21T09:50:20.546Z,39.05
2018-02-21T09:52:47.154Z,37.78
2018-02-21T09:55:13.822Z,36.67
2018-02-21T09:57:40.449Z,37.00
2018-02-21T10:00:07.065Z,36.78
2018-02-21T10:02:33.677Z,37.15
2018-02-21T10:05:00.311Z,35.67
2018-02-21T10:07:26.978Z,33.80
2018-02-21T10:09:53.626Z,35.67
2018-02-21T10:12:20.251Z,32.47
2018-02-21T10:14:46.895Z,32.80
2018-02-21T10:17:13.533Z,33.60
2018-02-21T10:19:40.317Z,31.83
2018-02-21T10:22:06.930Z,32.22
2018-02-21T10:24:33.653Z,31.98
2018-02-21T10:27:00.337Z,29.10
2018-02-21T10:29:26.947Z,31.30
2018-02-21T10:31:53.553Z,30.40
2018-02-21T10:34:20.182Z,33.08
2018-02-21T10:36:46.854Z,30.12
2018-02-21T10:39:13.476Z,30.45
2018-02-21T10:41:40.116Z,28.52
2018-02-21T10:44:06.727Z,32.25
2018-02-21T10:46:33.410Z,29.70
2018-02-21T10:49:00.704Z,30.27
2018-02-21T10:51:27.401Z,30.30
2018-02-21T10:53:54.084Z,29.77
2018-02-21T10:56:20.723Z,30.48
2018-02-21T10:58:47.338Z,29.77
2018-02-21T11:01:19.742Z,29.02
2018-02-21T11:03:46.350Z,30.02
2018-02-21T11:06:13.082Z,26.33
2018-02-21T11:08:39.701Z,29.23
2018-02-21T11:11:06.361Z,29.58
2018-02-21T11:13:32.937Z,31.55
2018-02-21T11:15:59.571Z,27.65
2018-02-21T11:18:26.187Z,26.90
2018-02-21T11:20:52.797Z,27.77
2018-02-21T11:23:19.486Z,27.73
2018-02-21T11:25:46.186Z,29.73
2018-02-21T11:28:12.801Z,27.77
2018-02-21T11:30:39.466Z,29.98
2018-02-21T11:33:06.101Z,27.87
2018-02-21T11:35:32.714Z,29.05
2018-02-21T11:37:59.352Z,29.23
2018-02-21T11:40:25.969Z,27.70
2018-02-21T11:42:52.657Z,27.70
2018-02-21T11:45:19.280Z,25.98
2018-02-21T11:47:45.893Z,27.45
2018-02-21T11:50:12.511Z,27.83
2018-02-21T11:52:39.142Z,25.88
2018-02-21T11:55:05.758Z,28.17
2018-02-21T11:57:32.394Z,26.33
2018-02-21T11:59:59.142Z,26.77
2018-02-21T12:02:25.764Z,25.60
2018-02-21T12:04:52.382Z,23.95
2018-02-21T12:07:19.014Z,25.50
2018-02-21T12:09:45.729Z,25.15
2018-02-21T12:12:12.316Z,25.48
2018-02-21T12:14:38.950Z,25.00
2018-02-21T12:17:05.650Z,24.65
2018-02-21T12:19:32.349Z,25.50
2018-02-21T12:21:59.094Z,26.27
2018-02-21T12:24:25.701Z,25.42
2018-02-21T12:26:52.313Z,26.35
2018-02-21T12:29:19.014Z,26.08
2018-02-21T12:31:46.038Z,26.25
2018-02-21T12:34:12.653Z,26.20
2018-02-21T12:36:39.277Z,24.05
2018-02-21T12:39:11.604Z,24.67
2018-02-21T12:41:43.266Z,23.98
2018-02-21T12:44:09.886Z,23.77
2018-02-21T12:46:36.541Z,23.80
2018-02-21T12:49:03.176Z,22.95
2018-02-21T12:51:29.791Z,22.92
2018-02-21T12:53:56.604Z,23.08
2018-02-21T12:56:23.229Z,22.85
2018-02-21T12:58:49.983Z,21.55
2018-02-21T13:01:16.622Z,23.05
2018-02-21T13:03:43.246Z,23.83
2018-02-21T13:06:09.862Z,21.48
2018-02-21T13:08:36.507Z,22.70
2018-02-21T13:11:03.131Z,22.58
2018-02-21T13:13:29.753Z,22.92
2018-02-21T13:15:56.413Z,22.87
2018-02-21T13:18:23.079Z,24.12
2018-02-21T13:20:49.667Z,26.08
2018-02-21T13:23:16.277Z,23.65
2018-02-21T13:25:42.910Z,24.25
2018-02-21T13:28:09.528Z,24.20
2018-02-21T13:30:36.250Z,26.02
2018-02-21T13:33:02.873Z,26.50
2018-02-21T13:35:29.490Z,27.70
2018-02-21T13:37:56.170Z,26.05
2018-02-21T13:40:22.848Z,24.10
2018-02-21T13:42:49.454Z,23.50
2018-02-21T13:45:16.065Z,24.70
2018-02-21T13:47:42.800Z,24.75
2018-02-21T13:50:09.473Z,26.15
2018-02-21T13:52:36.106Z,25.90
2018-02-21T13:55:02.746Z,26.98
2018-02-21T13:57:29.381Z,25.85
2018-02-21T13:59:55.989Z,28.02
2018-02-21T14:02:22.661Z,26.55
2018-02-21T14:04:49.273Z,27.60
2018-02-21T14:07:15.886Z,25.85
2018-02-21T14:09:42.619Z,26.33
2018-02-21T14:12:09.360Z,28.05
2018-02-21T14:14:36.103Z,28.38
2018-02-21T14:17:02.735Z,27.80
2018-02-21T14:19:29.345Z,27.13
2018-02-21T14:21:56.482Z,25.77
2018-02-21T14:24:23.129Z,26.80
2018-02-21T14:26:49.746Z,26.60
2018-02-21T14:29:16.451Z,28.87
2018-02-21T14:31:43.078Z,27.45
2018-02-21T14:34:09.695Z,27.42
2018-02-21T14:36:36.305Z,27.02
2018-02-21T14:39:02.930Z,25.27
2018-02-21T14:41:29.604Z,26.73
2018-02-21T14:43:56.246Z,25.35
2018-02-21T14:46:22.885Z,23.52
2018-02-21T14:48:49.489Z,26.30
2018-02-21T14:51:16.161Z,25.02
2018-02-21T14:53:42.905Z,26.12
2018-02-21T14:56:09.542Z,23.60
2018-02-21T14:58:36.170Z,24.90
2018-02-21T15:01:02.801Z,25.27
2018-02-21T15:03:29.458Z,26.90
2018-02-21T15:05:56.138Z,28.60
2018-02-21T15:08:22.766Z,28.33
2018-02-21T15:10:49.482Z,29.83
2018-02-21T15:13:16.093Z,28.12
2018-02-21T15:15:42.798Z,27.33
2018-02-21T15:18:09.498Z,25.88
2018-02-21T15:20:36.114Z,27.37
2018-02-21T15:23:02.753Z,27.25
2018-02-21T15:25:29.459Z,26.92
2018-02-21T15:27:56.072Z,28.02
2018-02-21T15:30:22.694Z,28.73
2018-02-21T15:32:49.309Z,27.10
2018-02-21T15:35:16.039Z,24.87
2018-02-21T15:37:42.718Z,25.52
2018-02-21T15:40:09.330Z,25.08
2018-02-21T15:42:35.942Z,24.65
2018-02-21T15:45:02.567Z,24.98
2018-02-21T15:47:29.183Z,22.65
2018-02-21T15:49:55.798Z,24.15
2018-02-21T15:52:22.425Z,25.35
2018-02-21T15:54:49.043Z,27.48
2018-02-21T15:57:15.650Z,23.38
2018-02-21T15:59:42.362Z,23.92
2018-02-21T16:02:09.043Z,25.35
2018-02-21T16:04:35.644Z,25.77
2018-02-21T16:07:02.277Z,25.95
2018-02-21T16:09:28.893Z,26.15
2018-02-21T16:11:55.598Z,24.75
2018-02-21T16:14:22.221Z,24.23
2018-02-21T16:16:49.593Z,24.45
2018-02-21T16:19:16.211Z,23.92
2018-02-21T16:21:42.838Z,27.23
2018-02-21T16:24:09.456Z,25.73
2018-02-21T16:26:36.069Z,24.80
2018-02-21T16:29:02.689Z,27.27
2018-02-21T16:31:29.386Z,25.55
2018-02-21T16:33:55.993Z,26.50
2018-02-21T16:36:22.618Z,25.80
2018-02-21T16:38:49.230Z,28.90
2018-02-21T16:41:15.986Z,26.20
2018-02-21T16:43:42.609Z,26.90
2018-02-21T16:46:09.223Z,27.50
2018-02-21T16:48:35.861Z,26.08
2018-02-21T16:51:02.597Z,26.73
2018-02-21T16:53:29.243Z,29.75
2018-02-21T16:55:55.883Z,31.00
2018-02-21T16:58:22.622Z,30.62
2018-02-21T17:00:49.238Z,30.42
2018-02-21T17:03:15.850Z,32.75
2018-02-21T17:05:42.478Z,32.80
2018-02-21T17:08:09.085Z,31.62
2018-02-21T17:10:35.704Z,31.87
2018-02-21T17:13:02.353Z,29.92
2018-02-21T17:15:28.966Z,30.35
2018-02-21T17:17:55.673Z,31.55
2018-02-21T17:20:22.413Z,32.50
2018-02-21T17:22:48.997Z,30.00
2018-02-21T17:25:15.659Z,30.90
2018-02-21T17:27:42.286Z,34.38
2018-02-21T17:30:08.926Z,35.55
2018-02-21T17:32:35.582Z,31.77
2018-02-21T17:35:02.210Z,33.10
2018-02-21T17:37:28.888Z,33.17
2018-02-21T17:39:55.498Z,33.10
2018-02-21T17:42:22.123Z,29.45
2018-02-21T17:44:48.770Z,32.65
2018-02-21T17:47:15.381Z,30.58
2018-02-21T17:49:42.010Z,34.50
2018-02-21T17:52:08.613Z,33.03
2018-02-21T17:54:35.227Z,32.45
2018-02-21T17:57:01.962Z,31.92
2018-02-21T17:59:28.598Z,33.42
2018-02-21T18:01:55.213Z,32.28
2018-02-21T18:04:21.874Z,33.45
2018-02-21T18:06:48.486Z,32.03
2018-02-21T18:09:15.097Z,33.67
2018-02-21T18:11:41.726Z,32.58
2018-02-21T18:14:08.337Z,32.53
2018-02-21T18:16:34.954Z,32.15
2018-02-21T18:19:01.653Z,32.10
2018-02-21T18:21:34.114Z,32.00
2018-02-21T18:24:00.745Z,35.05
2018-02-21T18:26:27.405Z,33.55
2018-02-21T18:28:54.014Z,34.97
2018-02-21T18:31:20.744Z,35.15
2018-02-21T18:33:47.427Z,33.78
2018-02-21T18:36:14.138Z,32.33
2018-02-21T18:38:40.762Z,33.13
2018-02-21T18:41:07.370Z,35.58
2018-02-21T18:43:33.986Z,33.80
2018-02-21T18:46:00.697Z,34.13
2018-02-21T18:48:27.300Z,34.33
2018-02-21T18:50:53.918Z,33.58
2018-02-21T18:53:20.641Z,32.95
2018-02-21T18:55:47.250Z,35.10
2018-02-21T18:58:13.881Z,33.95
2018-02-21T19:00:40.515Z,32.30
2018-02-21T19:03:07.161Z,32.42
2018-02-21T19:05:33.773Z,31.45
2018-02-21T19:08:00.406Z,32.65
2018-02-21T19:10:27.013Z,33.20
2018-02-21T19:12:53.625Z,33.60
2018-02-21T19:15:20.286Z,31.00
2018-02-21T19:17:46.894Z,35.25
2018-02-21T19:20:13.505Z,34.08
2018-02-21T19:22:40.135Z,33.00
2018-02-21T19:25:06.743Z,32.55
2018-02-21T19:27:33.450Z,34.75
2018-02-21T19:30:00.126Z,35.80
2018-02-21T19:32:26.830Z,30.25
2018-02-21T19:34:53.469Z,34.53
2018-02-21T19:37:20.231Z,32.70
2018-02-21T19:39:46.831Z,33.50
2018-02-21T19:42:13.446Z,33.38
2018-02-21T19:44:40.130Z,32.05
2018-02-21T19:47:06.751Z,32.05
2018-02-21T19:49:33.370Z,33.08
2018-02-21T19:52:00.043Z,32.08
2018-02-21T19:54:26.682Z,29.55
2018-02-21T19:56:53.294Z,30.30
2018-02-21T19:59:19.961Z,31.80
2018-02-21T20:01:46.578Z,33.67
2018-02-21T20:04:13.193Z,31.12
2018-02-21T20:06:39.820Z,32.53
2018-02-21T20:09:06.434Z,33.30
2018-02-21T20:11:33.050Z,31.23
2018-02-21T20:13:59.736Z,31.20
2018-02-21T20:16:26.434Z,30.83
2018-02-21T20:18:53.070Z,35.30
2018-02-21T20:21:19.698Z,31.48
2018-02-21T20:23:46.309Z,30.23
2018-02-21T20:26:12.917Z,29.10
2018-02-21T20:28:39.626Z,29.52
2018-02-21T20:31:06.269Z,30.90
2018-02-21T20:33:32.895Z,30.20
2018-02-21T20:35:59.554Z,29.25
2018-02-21T20:38:26.180Z,28.25
2018-02-21T20:40:52.783Z,32.05
2018-02-21T20:43:19.461Z,31.60
2018-02-21T20:45:46.082Z,33.40
2018-02-21T20:48:12.695Z,32.63
2018-02-21T20:50:39.382Z,31.75
2018-02-21T20:53:06.018Z,30.75
2018-02-21T20:55:32.658Z,31.00
2018-02-21T20:57:59.281Z,29.85
2018-02-21T21:00:25.890Z,31.50
2018-02-21T21:02:52.577Z,32.65
2018-02-21T21:05:19.205Z,31.40
2018-02-21T21:07:45.895Z,32.63
2018-02-21T21:10:12.511Z,30.62
2018-02-21T21:12:39.233Z,31.95
2018-02-21T21:15:05.931Z,31.05
2018-02-21T21:17:32.614Z,30.42
2018-02-21T21:19:59.242Z,33.65
2018-02-21T21:22:25.934Z,28.50
2018-02-21T21:24:52.541Z,32.20
2018-02-21T21:27:19.171Z,31.12
2018-02-21T21:29:45.851Z,31.77
2018-02-21T21:32:12.549Z,31.35
2018-02-21T21:34:39.190Z,32.35
2018-02-21T21:37:05.871Z,31.55
2018-02-21T21:39:32.565Z,31.85
2018-02-21T21:41:59.192Z,30.35
2018-02-21T21:44:25.891Z,32.58
2018-02-21T21:46:52.590Z,32.03
2018-02-21T21:49:19.308Z,33.05
2018-02-21T21:51:45.930Z,32.60
2018-02-21T21:54:12.537Z,33.10
2018-02-21T21:56:39.169Z,32.35
2018-02-21T21:59:05.782Z,31.12
2018-02-21T22:01:32.466Z,30.62
2018-02-21T22:03:59.165Z,30.77
2018-02-21T22:06:25.848Z,31.33
2018-02-21T22:08:52.457Z,31.77
2018-02-21T22:11:19.086Z,30.90
2018-02-21T22:13:45.699Z,31.45
2018-02-21T22:16:12.317Z,30.30
2018-02-21T22:18:38.950Z,28.08
2018-02-21T22:21:05.646Z,31.73
2018-02-21T22:23:32.264Z,29.10
2018-02-21T22:25:58.906Z,30.98
2018-02-21T22:28:25.553Z,29.73
2018-02-21T22:30:52.166Z,30.75
2018-02-21T22:33:18.798Z,27.92
2018-02-21T22:35:45.413Z,30.33
2018-02-21T22:38:12.113Z,28.73
2018-02-21T22:40:38.858Z,29.05
2018-02-21T22:43:05.478Z,27.52
2018-02-21T22:45:32.099Z,27.52
2018-02-21T22:47:58.814Z,28.60
2018-02-21T22:50:25.422Z,25.23
2018-02-21T22:52:52.058Z,29.02
2018-02-21T22:55:18.677Z,26.10
2018-02-21T22:57:45.289Z,29.50
2018-02-21T23:00:11.902Z,27.55
2018-02-21T23:02:38.529Z,27.25
2018-02-21T23:05:05.249Z,28.55
2018-02-21T23:07:31.888Z,26.10
2018-02-21T23:09:58.631Z,26.80
2018-02-21T23:12:25.271Z,28.10
2018-02-21T23:14:51.883Z,26.80
2018-02-21T23:17:18.548Z,26.02
2018-02-21T23:19:45.182Z,26.70
2018-02-21T23:22:11.821Z,27.40
2018-02-21T23:24:38.445Z,26.48
2018-02-21T23:27:05.102Z,25.45
2018-02-21T23:29:31.718Z,25.60
2018-02-21T23:31:58.381Z,26.45
2018-02-21T23:34:24.997Z,30.37
2018-02-21T23:36:51.658Z,26.70
2018-02-21T23:39:18.397Z,25.95
2018-02-21T23:41:45.042Z,25.90
2018-02-21T23:44:11.658Z,27.17
2018-02-21T23:46:38.290Z,25.70
2018-02-21T23:49:04.909Z,25.77
2018-02-21T23:51:31.521Z,28.45
2018-02-21T23:53:58.154Z,28.58
2018-02-21T23:56:24.812Z,26.52
2018-02-21T23:58:51.514Z,26.98
